Time;durP1;ratioP1;P1;durP2;ratioP2;P2;SDS_P1;SDS_P2;PMS_P1;PMS_P2;Temp;Humidity;BMP_temperature;BMP_pressure;BME280_temperature;BME280_humidity;BME280_pressure;Samples;Min_cycle;Max_cycle;Signal;HPM_P1;HPM_P2
2021/10/04 00:00:09;;;;;;;;;;;;;;;14.52;100.00;98743.00;4922309;28;19928;-79
2021/10/04 00:02:34;;;;;;;;;;;;;;;14.77;100.00;98751.19;4922101;28;19919;-77
2021/10/04 00:05:00;;;;;;;;;;;;;;;14.83;100.00;98763.00;4930466;28;20733;-78
2021/10/04 00:07:25;;;;;;;;;;;;;;;14.86;100.00;98760.22;4917510;28;19927;-77
2021/10/04 00:09:50;;;;;;;;;;;;;;;14.63;100.00;98749.31;4946038;28;19923;-77
2021/10/04 00:12:16;;;;;;;;;;;;;;;14.84;100.00;98754.28;4927527;28;19917;-78
2021/10/04 00:14:42;;;;;;;;;;;;;;;14.80;100.00;98765.72;4931094;28;19948;-78
2021/10/04 00:17:07;;;;;;;;;;;;;;;14.68;100.00;98771.56;4937012;28;19926;-79
2021/10/04 00:19:33;;;;;;;;;;;;;;;14.46;100.00;98782.19;4921296;28;19930;-76
2021/10/04 00:21:59;;;;;;;;;;;;;;;14.43;100.00;98793.53;4927269;28;20037;-76
2021/10/04 00:24:25;;;;;;;;;;;;;;;14.86;100.00;98801.72;4926050;28;19970;-79
2021/10/04 00:26:50;;;;;;;;;;;;;;;14.73;100.00;98796.31;4931526;28;19917;-77
2021/10/04 00:29:17;;;;;;;;;;;;;;;14.95;100.00;98793.44;4940922;28;19926;-80
2021/10/04 00:31:42;;;;;;;;;;;;;;;14.90;100.00;98792.84;4915715;28;19930;-78
2021/10/04 00:34:08;;;;;;;;;;;;;;;14.94;100.00;98807.34;4915933;28;19918;-78
2021/10/04 00:36:33;;;;;;;;;;;;;;;14.58;100.00;98808.34;4935857;28;20374;-78
2021/10/04 00:38:58;;;;;;;;;;;;;;;14.48;100.00;98816.63;4905589;28;20432;-78
2021/10/04 00:41:24;;;;;;;;;;;;;;;14.46;100.00;98821.91;4920061;28;19919;-77
2021/10/04 00:43:49;;;;;;;;;;;;;;;14.68;100.00;98810.44;4959233;28;19919;-76
2021/10/04 00:46:14;;;;;;;;;;;;;;;14.51;100.00;98806.13;4903341;28;19927;-78
2021/10/04 00:48:40;;;;;;;;;;;;;;;14.66;100.00;98809.69;4935627;28;20414;-77
2021/10/04 00:51:05;;;;;;;;;;;;;;;14.70;100.00;98803.44;4915208;28;20010;-78
2021/10/04 00:53:31;;;;;;;;;;;;;;;14.58;100.00;98810.94;4901218;28;20442;-77
2021/10/04 00:55:56;;;;;;;;;;;;;;;14.50;100.00;98815.63;4914941;28;19916;-79
2021/10/04 00:58:22;;;;;;;;;;;;;;;14.52;100.00;98798.25;4944877;28;20286;-78
2021/10/04 01:00:47;;;;;;;;;;;;;;;14.25;100.00;98805.66;4917000;28;19934;-78
2021/10/04 01:03:15;;;;;;;;;;;;;;;14.32;100.00;98804.47;4932440;28;20022;-78
2021/10/04 01:05:41;;;;;;;;;;;;;;;14.30;100.00;98803.69;4923257;28;19919;-80
2021/10/04 01:08:06;;;;;;;;;;;;;;;14.23;100.00;98810.94;4901636;28;20300;-77
2021/10/04 01:10:31;;;;;;;;;;;;;;;14.26;100.00;98819.47;4899529;28;19923;-79
2021/10/04 01:12:57;;;;;;;;;;;;;;;14.08;100.00;98824.63;4923613;28;19938;-78
2021/10/04 01:15:22;;;;;;;;;;;;;;;14.38;100.00;98829.22;4905197;28;20219;-77
2021/10/04 01:17:49;;;;;;;;;;;;;;;14.18;100.00;98831.03;4901657;28;19930;-78
2021/10/04 01:20:18;;;;;;;;;;;;;;;14.11;100.00;98832.25;4920593;28;19938;-79
2021/10/04 01:22:44;;;;;;;;;;;;;;;13.90;100.00;98828.13;4944707;28;19924;-79
2021/10/04 01:25:10;;;;;;;;;;;;;;;14.36;100.00;98824.09;4916844;28;20445;-78
2021/10/04 01:27:36;;;;;;;;;;;;;;;13.86;100.00;98835.19;4922726;28;19917;-78
2021/10/04 01:30:04;;;;;;;;;;;;;;;14.05;100.00;98835.16;4921546;28;19920;-77
2021/10/04 01:32:29;;;;;;;;;;;;;;;13.81;100.00;98843.19;4898751;28;19919;-79
2021/10/04 01:34:55;;;;;;;;;;;;;;;14.06;100.00;98844.59;4901462;28;20023;-80
2021/10/04 01:37:21;;;;;;;;;;;;;;;13.81;100.00;98838.00;4934983;28;20482;-78
2021/10/04 01:39:46;;;;;;;;;;;;;;;14.04;100.00;98843.00;4899584;28;19919;-79
2021/10/04 01:42:11;;;;;;;;;;;;;;;13.77;100.00;98839.06;4932218;28;19951;-78
2021/10/04 01:44:37;;;;;;;;;;;;;;;14.05;100.00;98832.56;4898274;28;19926;-77
2021/10/04 01:47:02;;;;;;;;;;;;;;;14.03;100.00;98839.56;4901044;28;20522;-78
2021/10/04 01:49:27;;;;;;;;;;;;;;;14.03;100.00;98836.97;4900364;28;19930;-77
2021/10/04 01:51:53;;;;;;;;;;;;;;;13.84;100.00;98823.25;4898770;28;20398;-78
2021/10/04 01:54:18;;;;;;;;;;;;;;;13.83;100.00;98819.00;4900154;28;19958;-77
2021/10/04 01:56:43;;;;;;;;;;;;;;;13.74;100.00;98809.91;4930299;29;20401;-77
2021/10/04 01:59:09;;;;;;;;;;;;;;;13.79;100.00;98819.13;4916610;28;19930;-77
2021/10/04 02:01:34;;;;;;;;;;;;;;;13.77;100.00;98820.94;4922632;28;19923;-77
2021/10/04 02:03:59;;;;;;;;;;;;;;;13.51;100.00;98813.59;4914000;29;19958;-76
2021/10/04 02:06:25;;;;;;;;;;;;;;;13.51;100.00;98819.59;4899369;28;20426;-78
2021/10/04 02:08:50;;;;;;;;;;;;;;;13.11;100.00;98824.00;4899923;28;19923;-77
2021/10/04 02:11:15;;;;;;;;;;;;;;;13.08;100.00;98831.03;4946409;28;20021;-77
2021/10/04 02:13:41;;;;;;;;;;;;;;;13.18;100.00;98821.94;4925131;28;19983;-80
2021/10/04 02:16:06;;;;;;;;;;;;;;;13.15;100.00;98822.09;4900852;28;19923;-77
2021/10/04 02:18:32;;;;;;;;;;;;;;;13.33;100.00;98821.28;4899176;28;19916;-76
2021/10/04 02:20:57;;;;;;;;;;;;;;;13.05;100.00;98831.19;4902153;28;19946;-77
2021/10/04 02:23:22;;;;;;;;;;;;;;;13.25;100.00;98832.84;4921664;28;19990;-79
2021/10/04 02:25:48;;;;;;;;;;;;;;;13.16;100.00;98829.78;4900500;28;19919;-78
2021/10/04 02:28:14;;;;;;;;;;;;;;;13.28;100.00;98837.94;4903118;28;19927;-78
2021/10/04 02:30:39;;;;;;;;;;;;;;;13.16;100.00;98836.72;4918826;28;19930;-78
2021/10/04 02:33:05;;;;;;;;;;;;;;;13.39;100.00;98825.34;4920046;28;20030;-79
2021/10/04 02:35:31;;;;;;;;;;;;;;;13.03;100.00;98835.59;4925860;28;19926;-78
2021/10/04 02:37:56;;;;;;;;;;;;;;;13.35;100.00;98829.81;4900766;28;19919;-76
2021/10/04 02:40:22;;;;;;;;;;;;;;;13.29;100.00;98829.25;4897832;28;20398;-78
2021/10/04 02:42:47;;;;;;;;;;;;;;;13.51;100.00;98831.69;4914363;28;19982;-78
2021/10/04 02:45:13;;;;;;;;;;;;;;;13.19;100.00;98828.81;4915971;29;20456;-78
2021/10/04 02:47:39;;;;;;;;;;;;;;;13.15;100.00;98837.63;4899183;28;20493;-79
2021/10/04 02:50:05;;;;;;;;;;;;;;;13.14;100.00;98836.78;4899163;28;19981;-77
2021/10/04 02:52:30;;;;;;;;;;;;;;;13.57;100.00;98839.16;4899308;28;19919;-77
2021/10/04 02:54:56;;;;;;;;;;;;;;;13.37;100.00;98837.50;4949158;28;20024;-77
2021/10/04 02:57:21;;;;;;;;;;;;;;;13.23;100.00;98834.66;4938529;28;19923;-78
2021/10/04 02:59:46;;;;;;;;;;;;;;;13.19;100.00;98829.66;4925856;28;19926;-77
2021/10/04 03:02:12;;;;;;;;;;;;;;;13.13;100.00;98835.09;4901957;28;19967;-77
2021/10/04 03:04:37;;;;;;;;;;;;;;;13.10;100.00;98831.81;4916056;29;19919;-77
2021/10/04 03:07:02;;;;;;;;;;;;;;;13.01;100.00;98852.91;4899493;28;20393;-79
2021/10/04 03:09:28;;;;;;;;;;;;;;;13.26;100.00;98850.91;4914595;29;19930;-79
2021/10/04 03:11:53;;;;;;;;;;;;;;;13.01;100.00;98850.31;4919052;28;19956;-76
2021/10/04 03:14:19;;;;;;;;;;;;;;;12.98;100.00;98844.38;4896756;28;20233;-79
2021/10/04 03:16:44;;;;;;;;;;;;;;;12.79;100.00;98846.09;4905328;28;19923;-77
2021/10/04 03:19:09;;;;;;;;;;;;;;;12.86;100.00;98857.81;4905734;28;19929;-77
2021/10/04 03:21:35;;;;;;;;;;;;;;;12.86;100.00;98857.81;4903013;28;20006;-79
2021/10/04 03:24:00;;;;;;;;;;;;;;;12.89;100.00;98862.88;4919276;29;19958;-79
2021/10/04 03:26:25;;;;;;;;;;;;;;;13.19;100.00;98872.78;4902487;29;19926;-78
2021/10/04 03:28:50;;;;;;;;;;;;;;;13.13;100.00;98871.28;4903337;28;19919;-77
2021/10/04 03:31:16;;;;;;;;;;;;;;;13.32;100.00;98866.19;4917473;29;19926;-77
2021/10/04 03:33:41;;;;;;;;;;;;;;;12.96;100.00;98869.47;4903802;28;19930;-79
2021/10/04 03:36:07;;;;;;;;;;;;;;;13.05;100.00;98872.56;4918737;28;19942;-78
2021/10/04 03:38:32;;;;;;;;;;;;;;;13.39;100.00;98872.75;4899925;28;19923;-77
2021/10/04 03:40:57;;;;;;;;;;;;;;;12.84;100.00;98867.41;4918626;28;19988;-77
2021/10/04 03:43:23;;;;;;;;;;;;;;;13.10;100.00;98876.59;4935277;28;19923;-78
2021/10/04 03:45:49;;;;;;;;;;;;;;;13.38;100.00;98885.75;4920419;28;19915;-76
2021/10/04 03:48:14;;;;;;;;;;;;;;;13.18;100.00;98894.34;4916484;28;19945;-78
2021/10/04 03:50:40;;;;;;;;;;;;;;;13.33;100.00;98898.88;4899448;28;19927;-78
2021/10/04 03:53:05;;;;;;;;;;;;;;;13.43;100.00;98888.13;4916903;28;19919;-77
2021/10/04 03:55:30;;;;;;;;;;;;;;;13.46;100.00;98904.34;4916649;29;19978;-77
2021/10/04 03:57:56;;;;;;;;;;;;;;;13.10;100.00;98902.47;4924512;28;19915;-77
2021/10/04 04:00:22;;;;;;;;;;;;;;;13.48;100.00;98897.34;4900511;28;19924;-78
2021/10/04 04:02:47;;;;;;;;;;;;;;;13.55;100.00;98900.50;4899557;28;20302;-79
2021/10/04 04:05:13;;;;;;;;;;;;;;;13.61;100.00;98907.97;4916751;29;19920;-78
2021/10/04 04:07:38;;;;;;;;;;;;;;;13.52;100.00;98914.41;4917024;29;19919;-78
2021/10/04 04:10:04;;;;;;;;;;;;;;;13.42;100.00;98917.50;4918326;28;20338;-78
2021/10/04 04:12:30;;;;;;;;;;;;;;;13.37;100.00;98910.78;4918542;28;19925;-78
2021/10/04 04:14:55;;;;;;;;;;;;;;;13.40;100.00;98914.97;4899098;28;19915;-78
2021/10/04 04:17:20;;;;;;;;;;;;;;;13.52;100.00;98917.00;4923533;28;19949;-77
2021/10/04 04:19:46;;;;;;;;;;;;;;;13.13;100.00;98911.81;4917852;28;19927;-78
2021/10/04 04:22:11;;;;;;;;;;;;;;;13.07;100.00;98925.88;4936455;28;19923;-79
2021/10/04 04:24:36;;;;;;;;;;;;;;;13.42;100.00;98917.50;4971480;28;19962;-79
2021/10/04 04:27:06;;;;;;;;;;;;;;;13.49;100.00;98913.72;4986289;28;19911;-77
2021/10/04 04:29:33;;;;;;;;;;;;;;;13.67;100.00;98917.22;4933198;28;19927;-77
2021/10/04 04:31:59;;;;;;;;;;;;;;;13.48;100.00;98906.84;4943931;28;19932;-76
2021/10/04 04:34:24;;;;;;;;;;;;;;;13.49;100.00;98917.13;4991638;28;19962;-79
2021/10/04 04:36:50;;;;;;;;;;;;;;;13.79;100.00;98911.47;4977283;28;19923;-79
2021/10/04 04:39:16;;;;;;;;;;;;;;;13.74;100.00;98914.25;4976697;28;19923;-77
2021/10/04 04:41:44;;;;;;;;;;;;;;;13.59;100.00;98920.13;4992018;28;19930;-77
2021/10/04 04:44:10;;;;;;;;;;;;;;;13.58;100.00;98921.06;4904599;28;19923;-76
2021/10/04 04:46:37;;;;;;;;;;;;;;;13.75;100.00;98921.13;4903282;28;20435;-77
2021/10/04 04:49:04;;;;;;;;;;;;;;;13.78;100.00;98913.22;4985637;28;19931;-77
2021/10/04 04:51:30;;;;;;;;;;;;;;;13.58;100.00;98915.88;4904083;28;22519;-77
2021/10/04 04:53:55;;;;;;;;;;;;;;;13.90;100.00;98929.91;4970389;28;19958;-77
2021/10/04 04:56:21;;;;;;;;;;;;;;;13.98;100.00;98916.59;4945447;28;20829;-77
2021/10/04 04:58:46;;;;;;;;;;;;;;;13.63;100.00;98908.75;4935566;28;19919;-79
2021/10/04 05:01:12;;;;;;;;;;;;;;;13.44;100.00;98905.34;4937448;28;19921;-78
2021/10/04 05:03:37;;;;;;;;;;;;;;;13.65;100.00;98909.50;4892598;28;19922;-78
2021/10/04 05:06:02;;;;;;;;;;;;;;;13.99;100.00;98907.94;4897216;28;19919;-79
2021/10/04 05:08:28;;;;;;;;;;;;;;;13.90;100.00;98913.56;4905561;28;19917;-79
2021/10/04 05:10:53;;;;;;;;;;;;;;;13.71;100.00;98919.59;4931887;28;19923;-79
2021/10/04 05:13:19;;;;;;;;;;;;;;;13.49;100.00;98917.13;4903256;28;19918;-78
2021/10/04 05:15:44;;;;;;;;;;;;;;;13.47;100.00;98926.72;4900467;28;19930;-78
2021/10/04 05:18:10;;;;;;;;;;;;;;;13.35;100.00;98911.75;4903752;28;19924;-77
2021/10/04 05:20:35;;;;;;;;;;;;;;;13.18;100.00;98915.03;4914223;28;19925;-77
2021/10/04 05:23:03;;;;;;;;;;;;;;;13.21;100.00;98920.09;4901977;28;19930;-77
2021/10/04 05:25:29;;;;;;;;;;;;;;;13.08;100.00;98924.13;4938728;28;20397;-78
2021/10/04 05:27:54;;;;;;;;;;;;;;;12.95;100.00;98942.75;4934058;28;19956;-77
2021/10/04 05:30:21;;;;;;;;;;;;;;;12.80;100.00;98955.47;4914125;28;20290;-77
2021/10/04 05:32:46;;;;;;;;;;;;;;;12.93;100.00;98949.72;4948881;28;19923;-77
2021/10/04 05:35:12;;;;;;;;;;;;;;;12.96;100.00;98941.00;4915184;28;20348;-78
2021/10/04 05:37:37;;;;;;;;;;;;;;;12.97;100.00;98945.25;4951735;28;19930;-78
2021/10/04 05:40:03;;;;;;;;;;;;;;;12.99;100.00;98951.19;4916832;28;19959;-77
2021/10/04 05:42:32;;;;;;;;;;;;;;;13.20;100.00;98962.34;4898627;28;19917;-77
2021/10/04 05:44:58;;;;;;;;;;;;;;;12.84;100.00;98973.38;4934216;28;19996;-78
2021/10/04 05:47:23;;;;;;;;;;;;;;;12.96;100.00;98962.50;4934097;28;19995;-77
2021/10/04 05:49:48;;;;;;;;;;;;;;;13.14;100.00;98958.31;4917004;28;19925;-78
2021/10/04 05:52:13;;;;;;;;;;;;;;;13.23;100.00;98959.66;4901448;28;19926;-77
2021/10/04 05:54:39;;;;;;;;;;;;;;;13.15;100.00;98956.56;4936392;28;20447;-77
2021/10/04 05:57:04;;;;;;;;;;;;;;;12.86;100.00;98961.22;4918831;28;19925;-79
2021/10/04 05:59:30;;;;;;;;;;;;;;;12.98;100.00;98959.88;4941435;28;20393;-78
2021/10/04 06:01:55;;;;;;;;;;;;;;;13.42;100.00;98961.47;4949305;28;19918;-79
2021/10/04 06:04:20;;;;;;;;;;;;;;;13.24;100.00;98968.25;4904862;28;19915;-78
2021/10/04 06:06:46;;;;;;;;;;;;;;;13.61;100.00;98988.19;4928187;28;19918;-79
2021/10/04 06:09:11;;;;;;;;;;;;;;;13.53;100.00;98983.38;4927783;28;20014;-78
2021/10/04 06:11:36;;;;;;;;;;;;;;;13.78;100.00;98984.84;4937432;28;19936;-78
2021/10/04 06:14:01;;;;;;;;;;;;;;;13.93;100.00;98973.78;4960861;28;19917;-78
2021/10/04 06:16:27;;;;;;;;;;;;;;;13.69;100.00;98991.28;4895433;28;19917;-78
2021/10/04 06:18:52;;;;;;;;;;;;;;;13.80;100.00;98991.63;4929540;28;19926;-79
2021/10/04 06:21:18;;;;;;;;;;;;;;;13.48;100.00;98998.25;4906872;28;20022;-77
2021/10/04 06:23:43;;;;;;;;;;;;;;;13.49;100.00;99009.44;4969006;28;19917;-79
2021/10/04 06:26:08;;;;;;;;;;;;;;;13.63;100.00;99014.84;4934356;28;19919;-78
2021/10/04 06:28:34;;;;;;;;;;;;;;;13.64;100.00;99032.06;4911220;28;19913;-77
2021/10/04 06:30:59;;;;;;;;;;;;;;;13.75;100.00;99029.84;4948807;28;19923;-78
2021/10/04 06:33:24;;;;;;;;;;;;;;;13.84;100.00;99025.13;4893193;28;20332;-79
2021/10/04 06:35:50;;;;;;;;;;;;;;;14.01;100.00;99025.22;4947038;28;19917;-77
2021/10/04 06:38:15;;;;;;;;;;;;;;;13.75;100.00;99023.81;4936531;28;19988;-78
2021/10/04 06:40:41;;;;;;;;;;;;;;;13.95;100.00;99036.69;4909853;28;19917;-78
2021/10/04 06:43:06;;;;;;;;;;;;;;;13.76;100.00;99036.69;4904459;28;19958;-79
2021/10/04 06:45:31;;;;;;;;;;;;;;;13.92;100.00;99046.34;4894840;28;20416;-78
2021/10/04 06:47:57;;;;;;;;;;;;;;;13.99;100.00;99040.81;4913058;28;20411;-78
2021/10/04 06:50:22;;;;;;;;;;;;;;;14.00;100.00;99046.84;4910359;28;19927;-77
2021/10/04 06:52:47;;;;;;;;;;;;;;;13.76;100.00;99051.38;4892720;28;20014;-77
2021/10/04 06:55:13;;;;;;;;;;;;;;;13.75;100.00;99049.69;4912968;28;20299;-77
2021/10/04 06:57:38;;;;;;;;;;;;;;;13.91;100.00;99053.28;4914197;28;20314;-78
2021/10/04 07:00:09;;;;;;;;;;;;;;;13.77;100.00;99056.47;4896500;28;19931;-77
2021/10/04 07:02:34;;;;;;;;;;;;;;;13.61;100.00;99058.06;4926015;28;20364;-78
2021/10/04 07:05:00;;;;;;;;;;;;;;;13.83;100.00;99073.50;4930269;28;19985;-78
2021/10/04 07:07:26;;;;;;;;;;;;;;;13.52;100.00;99069.63;4916806;28;20011;-78
2021/10/04 07:09:51;;;;;;;;;;;;;;;13.74;100.00;99069.56;4926614;28;19975;-79
2021/10/04 07:12:17;;;;;;;;;;;;;;;13.46;100.00;99064.75;4938495;28;19922;-79
2021/10/04 07:14:42;;;;;;;;;;;;;;;13.69;100.00;99060.31;4898005;28;19948;-77
2021/10/04 07:17:07;;;;;;;;;;;;;;;13.72;100.00;99055.84;4909104;28;19923;-79
2021/10/04 07:19:33;;;;;;;;;;;;;;;13.89;100.00;99056.84;4932113;28;20313;-77
2021/10/04 07:21:59;;;;;;;;;;;;;;;13.79;100.00;99057.25;4966363;28;19923;-78
2021/10/04 07:24:24;;;;;;;;;;;;;;;13.76;100.00;99059.16;4949225;28;21079;-78
2021/10/04 07:26:50;;;;;;;;;;;;;;;13.61;100.00;99058.06;4956828;28;19926;-77
2021/10/04 07:29:15;;;;;;;;;;;;;;;13.66;100.00;99071.66;4932123;28;20387;-77
2021/10/04 07:31:41;;;;;;;;;;;;;;;13.79;100.00;99080.53;4950182;28;20379;-78
2021/10/04 07:34:06;;;;;;;;;;;;;;;14.22;100.00;99081.22;4915289;28;19923;-77
2021/10/04 07:36:32;;;;;;;;;;;;;;;14.34;100.00;99090.16;4955870;28;19923;-78
2021/10/04 07:38:58;;;;;;;;;;;;;;;14.30;100.00;99085.19;4947101;28;19923;-78
2021/10/04 07:41:23;;;;;;;;;;;;;;;14.36;100.00;99087.50;4901542;28;19979;-78
2021/10/04 07:43:48;;;;;;;;;;;;;;;14.18;100.00;99081.41;4967979;28;19907;-78
2021/10/04 07:46:14;;;;;;;;;;;;;;;13.97;100.00;99083.22;4957367;28;19977;-77
2021/10/04 07:48:39;;;;;;;;;;;;;;;13.89;100.00;99088.75;4894162;28;19919;-77
2021/10/04 07:51:04;;;;;;;;;;;;;;;14.38;100.00;99102.06;4908241;28;19927;-78
2021/10/04 07:53:31;;;;;;;;;;;;;;;14.39;100.00;99105.50;4966726;28;20264;-78
2021/10/04 07:55:56;;;;;;;;;;;;;;;14.36;100.00;99093.53;4916427;28;20022;-77
2021/10/04 07:58:22;;;;;;;;;;;;;;;14.40;100.00;99095.06;4920226;28;20008;-78
2021/10/04 08:00:47;;;;;;;;;;;;;;;14.25;100.00;99094.94;4953728;28;19918;-77
2021/10/04 08:03:13;;;;;;;;;;;;;;;14.78;100.00;99104.59;4969458;28;19927;-78
2021/10/04 08:05:38;;;;;;;;;;;;;;;14.42;100.00;99095.84;4965453;28;19922;-77
2021/10/04 08:08:03;;;;;;;;;;;;;;;14.36;100.00;99092.69;4914594;28;19921;-77
2021/10/04 08:10:30;;;;;;;;;;;;;;;14.49;100.00;99093.81;4913166;28;20355;-78
2021/10/04 08:12:56;;;;;;;;;;;;;;;14.63;100.00;99091.44;4945078;28;19979;-78
2021/10/04 08:15:21;;;;;;;;;;;;;;;13.83;100.00;99098.53;4950247;28;20073;-78
2021/10/04 08:17:48;;;;;;;;;;;;;;;14.29;100.00;99101.66;4932416;28;19970;-78
2021/10/04 08:20:14;;;;;;;;;;;;;;;13.73;100.00;99095.50;4962096;28;19923;-77
2021/10/04 08:22:39;;;;;;;;;;;;;;;14.17;100.00;99103.06;4969127;28;19989;-78
2021/10/04 08:25:06;;;;;;;;;;;;;;;13.91;100.00;99101.63;4965037;28;20333;-78
2021/10/04 08:27:31;;;;;;;;;;;;;;;13.90;100.00;99105.97;4916304;28;19955;-78
2021/10/04 08:29:56;;;;;;;;;;;;;;;14.10;100.00;99096.47;4964223;28;19916;-78
2021/10/04 08:32:22;;;;;;;;;;;;;;;14.17;100.00;99090.94;4952963;28;20380;-78
2021/10/04 08:34:47;;;;;;;;;;;;;;;13.88;100.00;99092.25;4947286;28;20007;-78
2021/10/04 08:37:13;;;;;;;;;;;;;;;14.14;100.00;99088.50;4943683;28;19965;-78
2021/10/04 08:39:38;;;;;;;;;;;;;;;14.50;100.00;99079.94;4957483;28;19919;-77
2021/10/04 08:42:03;;;;;;;;;;;;;;;14.55;100.00;99077.16;4954309;28;19923;-78
2021/10/04 08:44:28;;;;;;;;;;;;;;;14.46;100.00;99083.59;4958226;28;19919;-78
2021/10/04 08:46:54;;;;;;;;;;;;;;;14.44;100.00;99077.66;4940251;28;19920;-78
2021/10/04 08:49:19;;;;;;;;;;;;;;;14.66;100.00;99079.25;4947003;28;20004;-78
2021/10/04 08:51:45;;;;;;;;;;;;;;;14.78;100.00;99078.66;4945017;28;20389;-77
2021/10/04 08:54:11;;;;;;;;;;;;;;;14.15;100.00;99079.81;4972629;28;19917;-77
2021/10/04 08:56:36;;;;;;;;;;;;;;;14.65;100.00;99070.63;4918199;28;19993;-77
2021/10/04 08:59:02;;;;;;;;;;;;;;;14.58;100.00;99067.50;4960474;28;20010;-78
2021/10/04 09:01:27;;;;;;;;;;;;;;;14.36;100.00;99067.63;4969588;28;19969;-77
2021/10/04 09:03:53;;;;;;;;;;;;;;;14.74;100.00;99066.78;4971156;28;19927;-78
2021/10/04 09:06:33;;;;;;;;;;;;;;;14.87;100.00;99060.09;4924462;28;20331;-78
2021/10/04 09:08:59;;;;;;;;;;;;;;;14.89;100.00;99062.59;4926469;28;19964;-78
2021/10/04 09:11:30;;;;;;;;;;;;;;;15.08;100.00;99057.34;4916304;28;20007;-78
2021/10/04 09:14:00;;;;;;;;;;;;;;;14.85;100.00;99059.31;4966410;28;19973;-78
2021/10/04 09:16:25;;;;;;;;;;;;;;;15.02;100.00;99061.06;4948374;28;19919;-77
2021/10/04 09:18:54;;;;;;;;;;;;;;;14.97;100.00;99058.72;4954525;28;19969;-78
2021/10/04 09:21:19;;;;;;;;;;;;;;;15.48;100.00;99074.34;4964971;28;19926;-78
2021/10/04 09:23:52;;;;;;;;;;;;;;;15.08;100.00;99065.13;4959627;28;20303;-78
2021/10/04 09:26:17;;;;;;;;;;;;;;;15.22;100.00;99070.47;4959051;28;19966;-78
2021/10/04 09:28:44;;;;;;;;;;;;;;;15.30;100.00;99091.66;4913401;28;19923;-78
2021/10/04 09:31:17;;;;;;;;;;;;;;;15.54;100.00;99094.81;4957034;28;20332;-78
2021/10/04 09:34:02;;;;;;;;;;;;;;;15.96;100.00;99090.09;4959288;28;20399;-78
2021/10/04 09:36:28;;;;;;;;;;;;;;;15.68;100.00;99101.88;4968099;28;19919;-78
2021/10/04 09:39:12;;;;;;;;;;;;;;;15.54;100.00;99099.16;4945479;28;19958;-77
2021/10/04 09:41:54;;;;;;;;;;;;;;;15.23;100.00;99111.06;4947040;28;19919;-78
2021/10/04 09:44:19;;;;;;;;;;;;;;;15.46;100.00;99108.19;4907584;28;20018;-78
2021/10/04 09:46:44;;;;;;;;;;;;;;;15.77;100.00;99117.03;4962497;28;19994;-78
2021/10/04 09:49:10;;;;;;;;;;;;;;;15.68;100.00;99123.47;4958472;28;20004;-77
2021/10/04 09:51:35;;;;;;;;;;;;;;;15.90;100.00;99127.63;4935375;28;20009;-77
2021/10/04 09:54:09;;;;;;;;;;;;;;;16.01;100.00;99120.13;4964876;28;19919;-78
2021/10/04 09:56:35;;;;;;;;;;;;;;;15.52;100.00;99107.00;4916518;28;20300;-77
2021/10/04 09:59:00;;;;;;;;;;;;;;;15.55;100.00;99100.81;4932529;28;19920;-78
2021/10/04 10:01:25;;;;;;;;;;;;;;;15.58;100.00;99101.53;4962064;28;20047;-77
2021/10/04 10:03:51;;;;;;;;;;;;;;;15.79;100.00;99084.03;4962306;28;19923;-77
2021/10/04 10:06:17;;;;;;;;;;;;;;;15.54;100.00;99096.56;4969314;28;20393;-77
2021/10/04 10:08:42;;;;;;;;;;;;;;;16.17;100.00;99095.91;4967634;28;20048;-78
2021/10/04 10:11:08;;;;;;;;;;;;;;;15.68;100.00;99100.13;4940189;28;19982;-78
2021/10/04 10:13:33;;;;;;;;;;;;;;;16.22;100.00;99106.91;4969503;28;19915;-78
2021/10/04 10:16:05;;;;;;;;;;;;;;;16.26;100.00;99119.66;4959335;28;19930;-78
2021/10/04 10:18:42;;;;;;;;;;;;;;;16.17;100.00;99112.34;4916401;28;19927;-77
2021/10/04 10:21:08;;;;;;;;;;;;;;;16.42;100.00;99118.81;4911413;28;19923;-78
2021/10/04 10:23:43;;;;;;;;;;;;;;;16.34;100.00;99115.81;4929780;28;20152;-76
2021/10/04 10:26:27;;;;;;;;;;;;;;;16.92;100.00;99112.59;4912787;28;19923;-78
2021/10/04 10:29:24;;;;;;;;;;;;;;;16.40;100.00;99102.44;4915205;28;20005;-78
2021/10/04 10:31:53;;;;;;;;;;;;;;;16.67;100.00;99093.16;4890210;28;19953;-78
2021/10/04 10:34:24;;;;;;;;;;;;;;;16.90;100.00;99091.91;4911354;28;20294;-77
2021/10/04 10:36:56;;;;;;;;;;;;;;;16.62;100.00;99097.75;4907769;28;19927;-77
2021/10/04 10:39:31;;;;;;;;;;;;;;;17.17;100.00;99101.63;4908061;28;19923;-78
2021/10/04 10:42:12;;;;;;;;;;;;;;;17.65;100.00;99102.34;4957648;28;20030;-78
2021/10/04 10:44:55;;;;;;;;;;;;;;;17.22;100.00;99103.97;4919733;28;20774;-77
2021/10/04 10:47:33;;;;;;;;;;;;;;;17.81;100.00;99091.84;4912956;28;19919;-78
2021/10/04 10:49:58;;;;;;;;;;;;;;;18.25;100.00;99095.28;4934943;28;19981;-77
2021/10/04 10:52:25;;;;;;;;;;;;;;;17.90;100.00;99101.72;4947230;28;19919;-78
2021/10/04 10:54:52;;;;;;;;;;;;;;;18.21;100.00;99099.84;4916017;28;20006;-78
2021/10/04 10:57:18;;;;;;;;;;;;;;;18.17;100.00;99100.94;4960785;28;19923;-78
2021/10/04 10:59:43;;;;;;;;;;;;;;;18.33;100.00;99101.66;4957792;28;19923;-78
2021/10/04 11:02:28;;;;;;;;;;;;;;;18.19;100.00;99104.31;4954142;28;19973;-78
2021/10/04 11:04:53;;;;;;;;;;;;;;;17.97;100.00;99095.22;4914687;28;19938;-78
2021/10/04 11:07:42;;;;;;;;;;;;;;;18.19;100.00;99096.47;4963642;28;19941;-78
2021/10/04 11:10:07;;;;;;;;;;;;;;;18.35;100.00;99101.59;4917643;28;19923;-77
2021/10/04 11:12:51;;;;;;;;;;;;;;;17.95;100.00;99099.69;4956278;28;20823;-77
2021/10/04 11:15:29;;;;;;;;;;;;;;;18.30;100.00;99114.91;4919997;28;19934;-78
2021/10/04 11:17:54;;;;;;;;;;;;;;;18.53;100.00;99108.25;4964985;28;19993;-78
2021/10/04 11:20:19;;;;;;;;;;;;;;;18.29;100.00;99107.16;4959708;28;19927;-78
2021/10/04 11:22:45;;;;;;;;;;;;;;;18.12;100.00;99098.63;4885200;28;20433;-78
2021/10/04 11:25:10;;;;;;;;;;;;;;;18.66;100.00;99089.22;4915521;28;19976;-78
2021/10/04 11:27:46;;;;;;;;;;;;;;;18.37;100.00;99097.94;4941279;28;19923;-77
2021/10/04 11:30:12;;;;;;;;;;;;;;;18.48;100.00;99096.44;4960866;28;19926;-77
2021/10/04 11:32:37;;;;;;;;;;;;;;;18.31;100.00;99090.50;4962135;28;19950;-78
2021/10/04 11:35:15;;;;;;;;;;;;;;;19.00;100.00;99096.59;4967814;28;19919;-78
2021/10/04 11:37:40;;;;;;;;;;;;;;;19.23;100.00;99095.06;4962655;28;20017;-77
2021/10/04 11:40:06;;;;;;;;;;;;;;;19.32;98.46;99095.41;4918059;28;19970;-78
2021/10/04 11:42:32;;;;;;;;;;;;;;;19.27;96.87;99103.50;4964547;28;19955;-77
2021/10/04 11:45:00;;;;;;;;;;;;;;;19.07;97.88;99094.41;4970999;28;19989;-78
2021/10/04 11:47:26;;;;;;;;;;;;;;;19.66;98.29;99083.53;4967792;28;20283;-78
2021/10/04 11:49:53;;;;;;;;;;;;;;;19.70;90.61;99086.78;4922216;28;19927;-77
2021/10/04 11:52:19;;;;;;;;;;;;;;;19.33;89.93;99084.84;4920307;28;19932;-77
2021/10/04 11:54:53;;;;;;;;;;;;;;;19.35;93.46;99098.63;4945086;28;19919;-78
2021/10/04 11:57:18;;;;;;;;;;;;;;;19.88;90.67;99092.53;4962450;28;19934;-79
2021/10/04 11:59:57;;;;;;;;;;;;;;;20.81;87.12;99088.53;4916661;28;19932;-77
2021/10/04 12:02:32;;;;;;;;;;;;;;;21.06;91.93;99084.13;4973267;28;19903;-78
2021/10/04 12:05:16;;;;;;;;;;;;;;;20.69;86.84;99086.81;4948354;28;19907;-78
2021/10/04 12:08:00;;;;;;;;;;;;;;;20.47;85.10;99088.31;4913808;28;19976;-78
2021/10/04 12:10:42;;;;;;;;;;;;;;;19.77;86.61;99088.84;4945747;28;19923;-78
2021/10/04 12:13:12;;;;;;;;;;;;;;;19.58;87.12;99094.47;4924838;28;19915;-77
2021/10/04 12:15:37;;;;;;;;;;;;;;;20.00;89.71;99100.38;4965321;28;19986;-77
2021/10/04 12:18:02;;;;;;;;;;;;;;;20.46;85.26;99096.28;4969079;28;19990;-77
2021/10/04 12:20:28;;;;;;;;;;;;;;;20.68;83.97;99093.81;4909645;28;19947;-77
2021/10/04 12:22:53;;;;;;;;;;;;;;;20.39;84.32;99090.66;4947748;28;19923;-77
2021/10/04 12:25:29;;;;;;;;;;;;;;;20.54;82.59;99093.94;4912108;28;19981;-77
2021/10/04 12:28:04;;;;;;;;;;;;;;;20.89;87.18;99088.81;4963790;28;19919;-77
2021/10/04 12:30:47;;;;;;;;;;;;;;;21.47;81.07;99088.06;4957289;28;19941;-77
2021/10/04 12:33:12;;;;;;;;;;;;;;;20.90;82.68;99079.19;4969858;28;19927;-77
2021/10/04 12:35:37;;;;;;;;;;;;;;;20.67;88.75;99067.78;4971427;28;19919;-76